createdAt,value
2023-01-15T00:01:28.339Z,0.90
2023-01-15T00:04:04.120Z,1.10
2023-01-15T00:06:42.295Z,1.10
2023-01-15T00:09:18.766Z,1.10
2023-01-15T00:11:52.637Z,1.00
2023-01-15T00:14:26.638Z,1.40
2023-01-15T00:17:00.511Z,0.90
2023-01-15T00:19:34.421Z,1.10
2023-01-15T00:22:09.047Z,1.40
2023-01-15T00:25:00.720Z,1.10
2023-01-15T00:27:40.772Z,1.40
2023-01-15T00:30:18.453Z,1.20
2023-01-15T00:32:52.471Z,1.20
2023-01-15T00:35:29.676Z,1.20
2023-01-15T00:38:03.445Z,1.20
2023-01-15T00:40:37.308Z,0.90
2023-01-15T00:43:11.723Z,1.30
2023-01-15T00:45:45.976Z,1.00
2023-01-15T00:48:19.966Z,1.00
2023-01-15T00:50:54.156Z,1.50
2023-01-15T00:53:28.771Z,1.10
2023-01-15T00:56:02.805Z,1.60
2023-01-15T00:58:37.168Z,1.20
2023-01-15T01:01:11.951Z,0.90
2023-01-15T01:03:48.987Z,0.90
2023-01-15T01:06:23.958Z,1.00
2023-01-15T01:08:58.276Z,1.20
2023-01-15T01:11:34.483Z,1.30
2023-01-15T01:14:08.730Z,1.60
2023-01-15T01:16:56.058Z,1.10
2023-01-15T01:19:30.574Z,1.10
2023-01-15T01:22:04.793Z,1.60
2023-01-15T01:24:38.549Z,0.80
2023-01-15T01:27:14.031Z,1.70
2023-01-15T01:29:48.258Z,1.40
2023-01-15T01:32:22.055Z,0.90
2023-01-15T01:34:57.295Z,1.10
2023-01-15T01:37:31.288Z,1.30
2023-01-15T01:40:05.394Z,1.00
2023-01-15T01:42:40.194Z,1.20
2023-01-15T01:45:27.161Z,1.10
2023-01-15T01:48:09.357Z,1.30
2023-01-15T01:50:44.959Z,1.30
2023-01-15T01:53:24.549Z,0.80
2023-01-15T01:55:59.792Z,1.30
2023-01-15T01:58:37.053Z,0.80
2023-01-15T02:01:11.001Z,1.00
2023-01-15T02:03:45.039Z,1.30
2023-01-15T02:06:19.829Z,1.30
2023-01-15T02:08:53.724Z,1.40
2023-01-15T02:11:28.478Z,1.00
2023-01-15T02:14:12.225Z,1.10
2023-01-15T02:16:54.432Z,1.50
2023-01-15T02:19:46.187Z,0.80
2023-01-15T02:22:37.539Z,1.20
2023-01-15T02:25:26.194Z,1.20
2023-01-15T02:28:06.728Z,1.10
2023-01-15T02:30:49.809Z,1.20
2023-01-15T02:33:32.654Z,1.20
2023-01-15T02:36:09.920Z,1.00
2023-01-15T02:38:49.566Z,1.20
2023-01-15T02:41:30.030Z,0.70
2023-01-15T02:44:09.679Z,1.10
2023-01-15T02:46:45.284Z,1.10
2023-01-15T02:49:23.912Z,1.10
2023-01-15T02:52:06.167Z,1.10
2023-01-15T02:54:47.653Z,0.90
2023-01-15T02:57:25.350Z,1.10
2023-01-15T03:00:07.193Z,0.80
2023-01-15T03:02:48.928Z,1.10
2023-01-15T03:05:31.776Z,1.00
2023-01-15T03:08:10.065Z,1.00
2023-01-15T03:10:54.113Z,1.20
2023-01-15T03:13:38.295Z,0.90
2023-01-15T03:16:38.425Z,1.00
2023-01-15T03:19:28.221Z,1.00
2023-01-15T03:22:10.563Z,0.90
2023-01-15T03:24:50.904Z,0.80
2023-01-15T03:27:26.128Z,0.90
2023-01-15T03:30:09.032Z,0.60
2023-01-15T03:32:43.743Z,0.90
2023-01-15T03:35:48.437Z,0.90
2023-01-15T03:38:33.819Z,0.80
2023-01-15T03:41:26.061Z,0.80
2023-01-15T03:44:15.331Z,0.70
2023-01-15T03:47:19.620Z,0.60
2023-01-15T03:50:03.471Z,1.00
2023-01-15T03:52:56.429Z,0.80
2023-01-15T03:55:37.315Z,0.80
2023-01-15T03:58:20.121Z,1.00
2023-01-15T04:00:58.415Z,1.00
2023-01-15T04:03:36.096Z,0.70
2023-01-15T04:06:12.506Z,0.60
2023-01-15T04:08:49.152Z,0.90
2023-01-15T04:11:28.803Z,1.00
2023-01-15T04:14:08.857Z,0.80
2023-01-15T04:16:50.218Z,0.90
2023-01-15T04:19:25.245Z,0.90
2023-01-15T04:22:07.304Z,1.20
2023-01-15T04:24:41.154Z,0.70
2023-01-15T04:27:14.866Z,0.80
2023-01-15T04:29:48.857Z,0.90
2023-01-15T04:32:23.142Z,0.90
2023-01-15T04:34:58.536Z,0.60
2023-01-15T04:37:32.365Z,0.90
2023-01-15T04:40:07.377Z,0.60
2023-01-15T04:42:58.643Z,0.70
2023-01-15T04:45:32.379Z,0.80
2023-01-15T04:48:07.353Z,0.90
2023-01-15T04:50:41.209Z,0.80
2023-01-15T04:53:15.108Z,0.80
2023-01-15T04:55:49.077Z,0.40
2023-01-15T04:58:23.292Z,0.70
2023-01-15T05:00:57.399Z,0.80
2023-01-15T05:03:31.635Z,0.70
2023-01-15T05:06:07.656Z,0.60
2023-01-15T05:08:42.182Z,1.20
2023-01-15T05:11:16.354Z,0.70
2023-01-15T05:13:50.361Z,3.00
2023-01-15T05:16:28.720Z,2.00
2023-01-15T05:19:07.230Z,1.90
2023-01-15T05:21:46.206Z,0.90
2023-01-15T05:24:22.216Z,0.90
2023-01-15T05:26:58.257Z,1.90
2023-01-15T05:29:31.923Z,1.10
2023-01-15T05:32:07.691Z,1.30
2023-01-15T05:34:43.298Z,1.00
2023-01-15T05:37:17.212Z,0.90
2023-01-15T05:39:51.273Z,0.90
2023-01-15T05:42:25.201Z,0.80
2023-01-15T05:44:59.252Z,1.00
2023-01-15T05:47:33.229Z,0.90
2023-01-15T05:50:08.207Z,1.00
2023-01-15T05:52:41.861Z,0.60
2023-01-15T05:55:15.867Z,1.00
2023-01-15T05:57:49.855Z,0.80
2023-01-15T06:00:29.178Z,1.20
2023-01-15T06:03:04.333Z,0.90
2023-01-15T06:05:38.348Z,1.20
2023-01-15T06:08:12.053Z,0.90
2023-01-15T06:10:49.404Z,0.90
2023-01-15T06:13:23.344Z,0.90
2023-01-15T06:15:57.314Z,1.10
2023-01-15T06:18:31.647Z,0.70
2023-01-15T06:21:10.015Z,0.80
2023-01-15T06:23:44.731Z,0.70
2023-01-15T06:26:20.135Z,0.90
2023-01-15T06:28:54.386Z,0.80
2023-01-15T06:31:29.056Z,0.80
2023-01-15T06:34:03.299Z,0.70
2023-01-15T06:36:37.251Z,0.80
2023-01-15T06:39:12.863Z,0.90
2023-01-15T06:42:04.532Z,1.40
2023-01-15T06:44:56.299Z,1.00
2023-01-15T06:47:30.750Z,0.90
2023-01-15T06:50:05.922Z,0.90
2023-01-15T06:52:39.778Z,1.10
2023-01-15T06:55:14.528Z,0.90
2023-01-15T06:57:48.470Z,0.90
2023-01-15T07:00:23.652Z,0.80
2023-01-15T07:02:57.388Z,0.80
2023-01-15T07:05:31.342Z,1.60
2023-01-15T07:08:05.545Z,1.20
2023-01-15T07:10:39.867Z,1.00
2023-01-15T07:13:15.114Z,0.90
2023-01-15T07:15:48.927Z,1.00
2023-01-15T07:18:23.194Z,0.90
2023-01-15T07:21:00.973Z,0.80
2023-01-15T07:23:34.802Z,1.20
2023-01-15T07:26:09.010Z,0.90
2023-01-15T07:28:43.453Z,0.90
2023-01-15T07:31:17.269Z,1.00
2023-01-15T07:33:52.429Z,0.70
2023-01-15T07:36:26.820Z,0.80
2023-01-15T07:39:01.205Z,1.00
2023-01-15T07:41:53.453Z,1.00
2023-01-15T07:44:45.456Z,1.00
2023-01-15T07:47:41.376Z,0.80
2023-01-15T07:50:20.009Z,1.20
2023-01-15T07:52:54.421Z,0.80
2023-01-15T07:55:28.954Z,0.90
2023-01-15T07:58:03.557Z,0.80
2023-01-15T08:00:37.536Z,0.80
2023-01-15T08:03:11.688Z,1.30
2023-01-15T08:05:45.476Z,0.70
2023-01-15T08:08:23.047Z,0.80
2023-01-15T08:11:14.265Z,0.80
2023-01-15T08:14:05.785Z,0.90
2023-01-15T08:16:41.959Z,0.90
2023-01-15T08:19:16.107Z,0.80
2023-01-15T08:21:50.299Z,1.00
2023-01-15T08:24:24.608Z,1.10
2023-01-15T08:26:58.906Z,0.80
2023-01-15T08:29:32.984Z,1.10
2023-01-15T08:32:08.064Z,0.90
2023-01-15T08:34:42.047Z,1.50
2023-01-15T08:37:15.997Z,1.00
2023-01-15T08:39:51.001Z,1.10
2023-01-15T08:42:25.948Z,1.00
2023-01-15T08:44:59.888Z,1.00
2023-01-15T08:47:33.686Z,1.10
2023-01-15T08:50:09.659Z,0.70
2023-01-15T08:52:44.089Z,1.10
2023-01-15T08:55:18.145Z,1.10
2023-01-15T08:57:52.057Z,1.30
2023-01-15T09:00:26.884Z,0.90
2023-01-15T09:03:00.767Z,1.00
2023-01-15T09:05:34.704Z,1.40
2023-01-15T09:08:10.452Z,1.50
2023-01-15T09:10:44.295Z,0.90
2023-01-15T09:13:18.411Z,1.10
2023-01-15T09:15:52.276Z,1.20
2023-01-15T09:18:26.451Z,1.10
2023-01-15T09:21:00.429Z,1.00
2023-01-15T09:23:34.393Z,1.00
2023-01-15T09:26:24.596Z,1.30
2023-01-15T09:28:59.216Z,1.50
2023-01-15T09:31:33.835Z,1.60
2023-01-15T09:34:07.934Z,1.30
2023-01-15T09:36:41.831Z,1.10
2023-01-15T09:39:15.961Z,1.10
2023-01-15T09:42:21.579Z,1.20
2023-01-15T09:45:19.585Z,1.10
2023-01-15T09:48:18.160Z,1.20
2023-01-15T09:51:10.382Z,1.10
2023-01-15T09:53:58.158Z,0.90
2023-01-15T09:56:36.833Z,1.20
2023-01-15T09:59:23.673Z,0.90
2023-01-15T10:01:59.080Z,1.20
2023-01-15T10:04:44.425Z,1.40
2023-01-15T10:07:29.042Z,1.50
2023-01-15T10:10:08.748Z,1.50
2023-01-15T10:12:44.763Z,1.40
2023-01-15T10:15:34.697Z,1.30
2023-01-15T10:18:15.083Z,1.30
2023-01-15T10:21:11.179Z,1.20
2023-01-15T10:24:02.930Z,1.60
2023-01-15T10:26:43.303Z,1.50
2023-01-15T10:29:31.726Z,1.10
2023-01-15T10:32:23.415Z,1.30
2023-01-15T10:35:32.710Z,1.40
2023-01-15T10:38:20.875Z,1.60
2023-01-15T10:41:13.632Z,1.60
2023-01-15T10:44:00.670Z,1.50
2023-01-15T10:46:40.987Z,1.70
2023-01-15T10:49:19.957Z,1.20
2023-01-15T10:51:59.534Z,1.00
2023-01-15T10:54:39.425Z,1.70
2023-01-15T10:57:16.894Z,1.80
2023-01-15T10:59:58.386Z,1.70
2023-01-15T11:02:39.425Z,1.40
2023-01-15T11:05:19.690Z,1.70
2023-01-15T11:08:45.096Z,1.70
2023-01-15T11:10:49.441Z,2.50
2023-01-15T11:13:44.295Z,1.70
2023-01-15T11:16:39.792Z,2.10
2023-01-15T11:19:38.590Z,1.80
2023-01-15T11:22:17.645Z,1.40
2023-01-15T11:24:56.048Z,1.30
2023-01-15T11:27:34.062Z,1.40
2023-01-15T11:30:29.147Z,1.80
2023-01-15T11:33:07.240Z,1.90
2023-01-15T11:35:50.974Z,1.60
2023-01-15T11:38:26.102Z,1.80
2023-01-15T11:41:05.522Z,2.90
2023-01-15T11:43:57.394Z,2.70
2023-01-15T11:46:53.784Z,2.30
2023-01-15T11:49:45.048Z,1.90
2023-01-15T11:52:24.449Z,1.90
2023-01-15T11:55:00.356Z,1.70
2023-01-15T11:57:38.467Z,2.00
2023-01-15T12:00:27.222Z,1.70
2023-01-15T12:03:08.732Z,1.80
2023-01-15T12:05:49.369Z,2.30
2023-01-15T12:08:41.106Z,1.70
2023-01-15T12:11:30.203Z,2.30
2023-01-15T12:14:32.308Z,2.10
2023-01-15T12:17:26.673Z,1.90
2023-01-15T12:20:18.226Z,1.60
2023-01-15T12:23:13.410Z,1.70
2023-01-15T12:26:05.359Z,2.00
2023-01-15T12:28:47.019Z,1.50
2023-01-15T12:31:28.807Z,2.00
2023-01-15T12:34:15.409Z,1.80
2023-01-15T12:36:57.571Z,1.70
2023-01-15T12:39:37.649Z,1.70
2023-01-15T12:42:36.249Z,2.10
2023-01-15T12:45:17.547Z,1.50
2023-01-15T12:48:00.272Z,1.20
2023-01-15T12:50:45.273Z,1.10
2023-01-15T12:53:27.137Z,1.00
2023-01-15T12:56:13.559Z,1.00
2023-01-15T12:58:53.811Z,0.90
2023-01-15T13:01:39.791Z,0.90
2023-01-15T13:04:23.185Z,0.60
2023-01-15T13:07:03.911Z,0.70
2023-01-15T13:09:57.384Z,0.80
2023-01-15T13:12:33.075Z,0.70
2023-01-15T13:15:14.366Z,1.00
2023-01-15T13:18:06.370Z,0.80
2023-01-15T13:20:48.929Z,0.70
2023-01-15T13:23:42.318Z,0.60
2023-01-15T13:26:45.387Z,0.80
2023-01-15T13:29:34.528Z,0.60
2023-01-15T13:32:18.632Z,0.30
2023-01-15T13:34:57.661Z,0.40
2023-01-15T13:37:36.982Z,0.50
2023-01-15T13:40:23.567Z,0.40
2023-01-15T13:42:59.060Z,0.40
2023-01-15T13:45:42.937Z,0.50
2023-01-15T13:48:27.224Z,0.40
2023-01-15T13:51:03.228Z,0.50
2023-01-15T13:53:41.353Z,0.30
2023-01-15T13:56:26.752Z,0.50
2023-01-15T13:59:03.314Z,0.60
2023-01-15T14:01:40.084Z,0.80
2023-01-15T14:04:18.827Z,0.80
2023-01-15T14:06:55.363Z,1.50
2023-01-15T14:09:34.526Z,0.80
2023-01-15T14:12:28.625Z,0.60
2023-01-15T14:15:30.321Z,0.70
2023-01-15T14:18:40.929Z,0.70
2023-01-15T14:21:40.870Z,0.80
2023-01-15T14:24:41.722Z,1.00
2023-01-15T14:27:34.485Z,0.40
2023-01-15T14:30:36.725Z,0.80
2023-01-15T14:33:25.296Z,0.80
2023-01-15T14:36:09.899Z,1.20
2023-01-15T14:38:56.166Z,1.20
2023-01-15T14:41:58.063Z,1.10
2023-01-15T14:44:36.017Z,1.50
2023-01-15T14:47:27.504Z,1.30
2023-01-15T14:50:31.475Z,1.00
2023-01-15T14:53:19.968Z,0.90
2023-01-15T14:55:59.898Z,0.80
2023-01-15T14:58:50.031Z,0.50
2023-01-15T15:01:37.425Z,0.90
2023-01-15T15:04:38.362Z,1.00
2023-01-15T15:07:19.342Z,1.10
2023-01-15T15:10:03.255Z,1.50
2023-01-15T15:12:50.439Z,1.50
2023-01-15T15:15:41.120Z,1.60
2023-01-15T15:18:33.165Z,1.70
2023-01-15T15:21:19.102Z,1.90
2023-01-15T15:24:06.166Z,2.20
2023-01-15T15:26:43.104Z,1.80
2023-01-15T15:29:22.126Z,2.10
2023-01-15T15:32:04.136Z,2.20
2023-01-15T15:34:47.131Z,2.00
2023-01-15T15:37:28.243Z,2.20
2023-01-15T15:40:17.145Z,2.20
2023-01-15T15:43:21.916Z,2.00
2023-01-15T15:46:16.835Z,1.90
2023-01-15T15:49:00.099Z,2.10
2023-01-15T15:51:40.113Z,3.50
2023-01-15T15:54:22.115Z,4.00
2023-01-15T15:57:07.230Z,3.60
2023-01-15T15:59:51.444Z,3.80
2023-01-15T16:02:37.221Z,3.60
2023-01-15T16:05:29.130Z,3.00
2023-01-15T16:16:34.220Z,3.60
2023-01-15T16:19:14.017Z,4.50
2023-01-15T16:21:50.884Z,4.20
2023-01-15T16:24:30.608Z,4.70
2023-01-15T16:27:17.019Z,4.70
2023-01-15T16:29:54.980Z,3.70
2023-01-15T16:32:36.047Z,3.80
2023-01-15T16:35:19.851Z,3.40
2023-01-15T16:37:57.718Z,3.00
2023-01-15T16:40:36.041Z,3.60
2023-01-15T16:43:14.641Z,3.60
2023-01-15T16:46:06.235Z,4.00
2023-01-15T16:48:47.087Z,4.50
2023-01-15T16:51:42.127Z,5.20
2023-01-15T16:54:47.266Z,5.50
2023-01-15T16:57:36.281Z,5.30
2023-01-15T17:00:33.288Z,7.50
2023-01-15T17:03:13.892Z,7.30
2023-01-15T17:05:50.121Z,11.00
2023-01-15T17:08:30.669Z,13.90
2023-01-15T17:11:07.066Z,13.40
2023-01-15T17:13:44.808Z,10.50
2023-01-15T17:16:24.461Z,9.80
2023-01-15T17:18:58.596Z,10.20
2023-01-15T17:21:32.984Z,11.20
2023-01-15T17:24:09.244Z,10.00
2023-01-15T17:26:43.397Z,9.80
2023-01-15T17:29:17.547Z,9.20
2023-01-15T17:31:52.572Z,9.50
2023-01-15T17:34:27.176Z,9.60
2023-01-15T17:37:01.017Z,8.80
2023-01-15T17:39:35.304Z,9.40
2023-01-15T17:42:17.765Z,8.30
2023-01-15T17:44:52.288Z,7.90
2023-01-15T17:47:26.093Z,8.80
2023-01-15T17:50:00.364Z,8.20
2023-01-15T17:52:34.382Z,8.90
2023-01-15T17:55:29.556Z,8.60
2023-01-15T17:58:22.084Z,8.10
2023-01-15T18:01:15.075Z,8.00
2023-01-15T18:04:11.920Z,8.50
2023-01-15T18:06:51.197Z,7.80
2023-01-15T18:09:26.198Z,7.10
2023-01-15T18:12:00.477Z,7.20
2023-01-15T18:14:34.611Z,7.50
2023-01-15T18:17:09.076Z,7.20
2023-01-15T18:25:20.875Z,7.20
2023-01-15T18:27:54.928Z,7.50
2023-01-15T18:30:29.050Z,9.70
2023-01-15T18:33:03.315Z,7.90
2023-01-15T18:35:38.282Z,7.60
2023-01-15T18:38:12.510Z,6.50
2023-01-15T18:40:46.773Z,6.60
2023-01-15T18:43:38.402Z,7.20
2023-01-15T18:46:32.090Z,6.60
2023-01-15T18:49:06.246Z,6.70
2023-01-15T18:51:40.353Z,6.10
2023-01-15T18:54:14.515Z,5.80
2023-01-15T18:56:48.616Z,6.00
2023-01-15T18:59:22.485Z,5.70
2023-01-15T19:01:57.665Z,6.40
2023-01-15T19:04:32.046Z,6.30
2023-01-15T19:07:06.203Z,7.80
2023-01-15T19:09:40.845Z,6.90
2023-01-15T19:12:17.268Z,6.30
2023-01-15T19:15:08.967Z,6.00
2023-01-15T19:18:00.517Z,6.40
2023-01-15T19:20:34.580Z,6.30
2023-01-15T19:23:09.446Z,5.90
2023-01-15T19:25:46.717Z,7.20
2023-01-15T19:28:23.228Z,6.30
2023-01-15T19:31:14.768Z,6.10
2023-01-15T19:33:49.710Z,6.50
2023-01-15T19:36:23.933Z,6.70
2023-01-15T19:38:58.364Z,6.90
2023-01-15T19:41:50.014Z,8.00
2023-01-15T19:44:41.572Z,7.80
2023-01-15T19:47:36.182Z,7.50
2023-01-15T19:50:20.003Z,7.10
2023-01-15T19:52:57.260Z,6.00
2023-01-15T19:55:34.384Z,5.00
2023-01-15T19:58:12.013Z,6.10
2023-01-15T20:00:50.074Z,5.40
2023-01-15T20:03:24.751Z,5.30
2023-01-15T20:05:59.038Z,6.20
2023-01-15T20:08:34.927Z,4.50
2023-01-15T20:11:12.330Z,4.30
2023-01-15T20:13:53.866Z,4.70
2023-01-15T20:16:28.911Z,3.60
2023-01-15T20:19:03.193Z,4.00
2023-01-15T20:21:37.454Z,3.70
2023-01-15T20:24:13.180Z,3.20
2023-01-15T20:26:47.747Z,3.40
2023-01-15T20:29:22.060Z,2.50
2023-01-15T20:31:56.234Z,2.40
2023-01-15T20:34:32.279Z,2.40
2023-01-15T20:37:09.075Z,2.00
2023-01-15T20:39:44.610Z,2.20
2023-01-15T20:42:36.292Z,2.70
2023-01-15T20:45:14.002Z,1.90
2023-01-15T20:48:06.066Z,1.50
2023-01-15T20:50:43.149Z,1.50
2023-01-15T20:53:17.300Z,2.20
2023-01-15T20:55:57.228Z,1.80
2023-01-15T20:58:32.077Z,3.20
2023-01-15T21:01:11.230Z,2.00
2023-01-15T21:03:45.381Z,2.30
2023-01-15T21:06:20.009Z,2.20
2023-01-15T21:08:54.331Z,2.30
2023-01-15T21:11:28.544Z,2.10
2023-01-15T21:14:02.664Z,2.00
2023-01-15T21:16:36.804Z,1.60
2023-01-15T21:19:10.718Z,2.00
2023-01-15T21:21:44.796Z,2.40
2023-01-15T21:24:19.416Z,2.30
2023-01-15T21:26:53.360Z,3.40
2023-01-15T21:29:27.280Z,2.50
2023-01-15T21:32:01.291Z,1.80
2023-01-15T21:34:35.569Z,2.00
2023-01-15T21:37:09.792Z,2.20
2023-01-15T21:39:43.730Z,2.50
2023-01-15T21:42:40.878Z,2.00
2023-01-15T21:45:15.605Z,2.10
2023-01-15T21:47:49.666Z,3.00
2023-01-15T21:50:23.600Z,3.00
2023-01-15T21:52:57.868Z,3.00
2023-01-15T21:55:31.937Z,2.90
2023-01-15T21:58:05.818Z,2.50
2023-01-15T22:00:40.579Z,2.50
2023-01-15T22:03:17.546Z,2.60
2023-01-15T22:05:51.677Z,2.80
2023-01-15T22:08:25.779Z,2.90
2023-01-15T22:11:06.080Z,2.80
2023-01-15T22:13:41.046Z,2.50
2023-01-15T22:16:14.912Z,2.70
2023-01-15T22:18:50.036Z,2.60
2023-01-15T22:21:24.084Z,2.40
2023-01-15T22:23:58.553Z,2.10
2023-01-15T22:26:33.544Z,3.30
2023-01-15T22:29:07.459Z,3.00
2023-01-15T22:31:43.749Z,2.20
2023-01-15T22:34:17.697Z,2.90
2023-01-15T22:36:53.006Z,2.20
2023-01-15T22:39:28.787Z,2.90
2023-01-15T22:42:20.087Z,2.20
2023-01-15T22:44:53.953Z,2.90
2023-01-15T22:47:28.309Z,1.90
2023-01-15T22:50:02.385Z,2.20
2023-01-15T22:52:38.730Z,1.70
2023-01-15T22:55:14.466Z,1.90
2023-01-15T22:57:49.182Z,1.90
2023-01-15T23:00:24.168Z,2.20
2023-01-15T23:03:05.170Z,2.00
2023-01-15T23:05:41.020Z,1.60
2023-01-15T23:08:15.011Z,1.30
2023-01-15T23:10:51.214Z,1.60
2023-01-15T23:13:25.265Z,1.50
2023-01-15T23:16:02.861Z,1.70
2023-01-15T23:18:37.344Z,1.80
2023-01-15T23:21:14.773Z,1.10
2023-01-15T23:23:49.188Z,1.60
2023-01-15T23:26:23.579Z,1.30
2023-01-15T23:28:57.525Z,0.90
2023-01-15T23:31:32.097Z,1.20
2023-01-15T23:34:06.174Z,1.00
2023-01-15T23:36:40.244Z,1.10
2023-01-15T23:39:14.590Z,1.20
2023-01-15T23:42:06.003Z,0.80
2023-01-15T23:44:57.596Z,0.60
2023-01-15T23:47:31.641Z,0.60
2023-01-15T23:50:05.623Z,0.90
2023-01-15T23:52:39.609Z,0.60
2023-01-15T23:55:14.607Z,0.70
2023-01-15T23:57:48.763Z,0.70
